sensor_id;sensor_type;location;lat;lon;timestamp;temperature;humidity
52273;DHT22;38227;50.942;4.016;2022-10-26T10:02:41;21.00;99.90
52273;DHT22;38227;50.942;4.016;2022-10-26T10:08:26;21.10;99.90
52273;DHT22;38227;50.942;4.016;2022-10-26T10:11:14;21.20;99.90
52273;DHT22;38227;50.942;4.016;2022-10-26T10:14:06;21.20;99.90
52273;DHT22;38227;50.942;4.016;2022-10-26T10:16:37;21.30;99.90
52273;DHT22;38227;50.942;4.016;2022-10-26T10:19:24;21.20;99.90
52273;DHT22;38227;50.942;4.016;2022-10-26T10:21:58;21.20;99.90
52273;DHT22;38227;50.942;4.016;2022-10-26T10:24:36;21.30;99.90
52273;DHT22;38227;50.942;4.016;2022-10-26T10:27:32;21.40;99.90
52273;DHT22;38227;50.942;4.016;2022-10-26T10:30:35;21.30;99.90
52273;DHT22;38227;50.942;4.016;2022-10-26T10:33:13;21.40;99.90
52273;DHT22;38227;50.942;4.016;2022-10-26T10:35:50;21.50;99.90
52273;DHT22;38227;50.942;4.016;2022-10-26T10:38:21;21.60;99.90
52273;DHT22;38227;50.942;4.016;2022-10-26T10:40:57;21.80;99.90
52273;DHT22;38227;50.942;4.016;2022-10-26T10:43:28;22.00;99.90
52273;DHT22;38227;50.942;4.016;2022-10-26T10:45:57;22.00;99.90
52273;DHT22;38227;50.942;4.016;2022-10-26T10:48:29;21.90;99.90
52273;DHT22;38227;50.942;4.016;2022-10-26T10:51:01;21.70;99.90
52273;DHT22;38227;50.942;4.016;2022-10-26T10:53:53;21.60;99.90
52273;DHT22;38227;50.942;4.016;2022-10-26T10:56:40;21.30;99.90
52273;DHT22;38227;50.942;4.016;2022-10-26T10:59:40;21.50;99.90
52273;DHT22;38227;50.942;4.016;2022-10-26T11:02:44;21.50;99.90
52273;DHT22;38227;50.942;4.016;2022-10-26T11:08:56;21.50;99.90
52273;DHT22;38227;50.942;4.016;2022-10-26T11:11:32;21.50;99.90
52273;DHT22;38227;50.942;4.016;2022-10-26T11:17:21;21.50;99.90
52273;DHT22;38227;50.942;4.016;2022-10-26T11:20:00;21.60;99.90
52273;DHT22;38227;50.942;4.016;2022-10-26T11:22:53;21.70;99.90
52273;DHT22;38227;50.942;4.016;2022-10-26T11:25:50;21.50;99.90
52273;DHT22;38227;50.942;4.016;2022-10-26T11:31:24;21.50;99.90
52273;DHT22;38227;50.942;4.016;2022-10-26T11:37:54;21.50;99.90
52273;DHT22;38227;50.942;4.016;2022-10-26T11:40:50;21.40;99.90
52273;DHT22;38227;50.942;4.016;2022-10-26T11:46:43;21.40;99.90
52273;DHT22;38227;50.942;4.016;2022-10-26T11:49:27;21.50;99.90
52273;DHT22;38227;50.942;4.016;2022-10-26T11:52:15;21.70;99.90
52273;DHT22;38227;50.942;4.016;2022-10-26T11:57:36;21.50;99.90
52273;DHT22;38227;50.942;4.016;2022-10-26T12:00:14;21.40;99.90
52273;DHT22;38227;50.942;4.016;2022-10-26T12:03:11;21.30;99.90
52273;DHT22;38227;50.942;4.016;2022-10-26T12:05:51;21.40;99.90
52273;DHT22;38227;50.942;4.016;2022-10-26T12:08:40;21.50;99.90
52273;DHT22;38227;50.942;4.016;2022-10-26T12:11:47;21.60;99.90
52273;DHT22;38227;50.942;4.016;2022-10-26T12:17:40;21.40;99.90
52273;DHT22;38227;50.942;4.016;2022-10-26T12:23:39;21.50;99.90
52273;DHT22;38227;50.942;4.016;2022-10-26T12:27:03;21.50;99.90
52273;DHT22;38227;50.942;4.016;2022-10-26T12:33:08;21.50;99.90
52273;DHT22;38227;50.942;4.016;2022-10-26T12:35:53;21.40;99.90
52273;DHT22;38227;50.942;4.016;2022-10-26T12:38:54;21.40;99.90
52273;DHT22;38227;50.942;4.016;2022-10-26T12:41:26;21.40;99.90
52273;DHT22;38227;50.942;4.016;2022-10-26T12:44:01;21.40;99.90
52273;DHT22;38227;50.942;4.016;2022-10-26T12:46:55;21.30;99.90
52273;DHT22;38227;50.942;4.016;2022-10-26T12:50:17;21.20;99.90
52273;DHT22;38227;50.942;4.016;2022-10-26T12:52:55;21.20;99.90
52273;DHT22;38227;50.942;4.016;2022-10-26T12:58:58;21.00;99.90
52273;DHT22;38227;50.942;4.016;2022-10-26T13:05:20;21.00;99.90
52273;DHT22;38227;50.942;4.016;2022-10-26T13:08:03;21.00;99.90
52273;DHT22;38227;50.942;4.016;2022-10-26T13:10:34;21.10;99.90
52273;DHT22;38227;50.942;4.016;2022-10-26T13:13:05;21.30;99.90
52273;DHT22;38227;50.942;4.016;2022-10-26T13:15:51;21.40;99.90
52273;DHT22;38227;50.942;4.016;2022-10-26T13:18:21;21.60;99.90
52273;DHT22;38227;50.942;4.016;2022-10-26T13:21:14;21.70;99.90
52273;DHT22;38227;50.942;4.016;2022-10-26T13:23:47;21.70;99.90
52273;DHT22;38227;50.942;4.016;2022-10-26T13:26:28;21.60;99.90
52273;DHT22;38227;50.942;4.016;2022-10-26T13:29:00;21.60;99.90
52273;DHT22;38227;50.942;4.016;2022-10-26T13:34:39;21.70;99.90
52273;DHT22;38227;50.942;4.016;2022-10-26T13:37:23;21.80;99.90
52273;DHT22;38227;50.942;4.016;2022-10-26T13:39:55;21.90;99.90
52273;DHT22;38227;50.942;4.016;2022-10-26T13:42:40;21.80;99.90
52273;DHT22;38227;50.942;4.016;2022-10-26T13:45:17;21.90;99.90
52273;DHT22;38227;50.942;4.016;2022-10-26T13:48:00;21.90;99.90
52273;DHT22;38227;50.942;4.016;2022-10-26T13:56:40;22.20;99.90
52273;DHT22;38227;50.942;4.016;2022-10-26T13:59:12;22.10;99.90
52273;DHT22;38227;50.942;4.016;2022-10-26T14:01:40;22.10;99.90
52273;DHT22;38227;50.942;4.016;2022-10-26T14:04:25;22.20;99.90
52273;DHT22;38227;50.942;4.016;2022-10-26T14:06:54;22.20;99.90
52273;DHT22;38227;50.942;4.016;2022-10-26T14:09:22;22.20;99.90
52273;DHT22;38227;50.942;4.016;2022-10-26T14:12:10;22.20;99.90
52273;DHT22;38227;50.942;4.016;2022-10-26T14:14:39;22.30;99.90
52273;DHT22;38227;50.942;4.016;2022-10-26T14:17:20;22.40;99.90
52273;DHT22;38227;50.942;4.016;2022-10-26T14:19:48;22.30;99.90
52273;DHT22;38227;50.942;4.016;2022-10-26T14:22:24;22.30;99.90
52273;DHT22;38227;50.942;4.016;2022-10-26T14:24:55;22.30;99.90
52273;DHT22;38227;50.942;4.016;2022-10-26T14:27:32;22.40;99.90
52273;DHT22;38227;50.942;4.016;2022-10-26T14:30:00;22.30;99.90
52273;DHT22;38227;50.942;4.016;2022-10-26T14:32:31;22.30;99.90
52273;DHT22;38227;50.942;4.016;2022-10-26T14:35:00;22.30;99.90
52273;DHT22;38227;50.942;4.016;2022-10-26T14:38:05;22.20;99.90
52273;DHT22;38227;50.942;4.016;2022-10-26T14:40:38;22.20;99.90
52273;DHT22;38227;50.942;4.016;2022-10-26T14:43:10;22.10;99.90
52273;DHT22;38227;50.942;4.016;2022-10-26T14:45:47;22.00;99.90
52273;DHT22;38227;50.942;4.016;2022-10-26T14:48:32;22.00;99.90
52273;DHT22;38227;50.942;4.016;2022-10-26T14:51:24;22.10;99.90
52273;DHT22;38227;50.942;4.016;2022-10-26T14:53:56;22.20;99.90
52273;DHT22;38227;50.942;4.016;2022-10-26T14:59:27;22.10;99.90
52273;DHT22;38227;50.942;4.016;2022-10-26T15:02:17;22.10;99.90
52273;DHT22;38227;50.942;4.016;2022-10-26T15:05:32;22.00;99.90
52273;DHT22;38227;50.942;4.016;2022-10-26T15:08:38;22.00;99.90
52273;DHT22;38227;50.942;4.016;2022-10-26T15:10:51;21.90;99.90
52273;DHT22;38227;50.942;4.016;2022-10-26T15:13:42;21.80;99.90
52273;DHT22;38227;50.942;4.016;2022-10-26T15:16:22;21.70;99.90
52273;DHT22;38227;50.942;4.016;2022-10-26T15:18:57;21.60;99.90
52273;DHT22;38227;50.942;4.016;2022-10-26T15:21:37;21.50;99.90
52273;DHT22;38227;50.942;4.016;2022-10-26T15:27:18;21.50;99.90
52273;DHT22;38227;50.942;4.016;2022-10-26T15:29:49;21.50;99.90
52273;DHT22;38227;50.942;4.016;2022-10-26T15:32:31;21.50;99.90
52273;DHT22;38227;50.942;4.016;2022-10-26T15:38:09;21.50;99.90
52273;DHT22;38227;50.942;4.016;2022-10-26T15:40:41;21.50;99.90
52273;DHT22;38227;50.942;4.016;2022-10-26T15:43:10;21.50;99.90
52273;DHT22;38227;50.942;4.016;2022-10-26T15:45:46;21.60;99.90
52273;DHT22;38227;50.942;4.016;2022-10-26T15:48:27;21.60;99.90
52273;DHT22;38227;50.942;4.016;2022-10-26T15:50:57;21.50;99.90
52273;DHT22;38227;50.942;4.016;2022-10-26T15:53:29;21.50;99.90
52273;DHT22;38227;50.942;4.016;2022-10-26T15:55:58;21.50;99.90
52273;DHT22;38227;50.942;4.016;2022-10-26T15:58:30;21.60;99.90
52273;DHT22;38227;50.942;4.016;2022-10-26T16:01:18;21.60;99.90
52273;DHT22;38227;50.942;4.016;2022-10-26T16:03:48;21.50;99.90
52273;DHT22;38227;50.942;4.016;2022-10-26T16:06:37;21.50;99.90
52273;DHT22;38227;50.942;4.016;2022-10-26T16:09:11;21.50;99.90
52273;DHT22;38227;50.942;4.016;2022-10-26T16:11:41;21.40;99.90
52273;DHT22;38227;50.942;4.016;2022-10-26T16:14:09;21.40;99.90
52273;DHT22;38227;50.942;4.016;2022-10-26T16:16:43;21.40;99.90
52273;DHT22;38227;50.942;4.016;2022-10-26T16:19:10;21.40;99.90
52273;DHT22;38227;50.942;4.016;2022-10-26T16:21:40;21.40;99.90
52273;DHT22;38227;50.942;4.016;2022-10-26T16:24:09;21.20;99.90
52273;DHT22;38227;50.942;4.016;2022-10-26T16:26:38;21.20;99.90
52273;DHT22;38227;50.942;4.016;2022-10-26T16:29:06;21.10;99.90
52273;DHT22;38227;50.942;4.016;2022-10-26T16:31:39;21.00;99.90
52273;DHT22;38227;50.942;4.016;2022-10-26T16:34:07;21.00;99.90
52273;DHT22;38227;50.942;4.016;2022-10-26T16:36:45;20.90;99.90
52273;DHT22;38227;50.942;4.016;2022-10-26T16:39:13;20.90;99.90
52273;DHT22;38227;50.942;4.016;2022-10-26T16:41:41;20.80;99.90
52273;DHT22;38227;50.942;4.016;2022-10-26T16:44:11;20.80;99.90
52273;DHT22;38227;50.942;4.016;2022-10-26T16:46:55;20.80;99.90
52273;DHT22;38227;50.942;4.016;2022-10-26T16:49:27;20.80;99.90
52273;DHT22;38227;50.942;4.016;2022-10-26T16:51:57;20.80;99.90
52273;DHT22;38227;50.942;4.016;2022-10-26T16:54:35;20.80;99.90
52273;DHT22;38227;50.942;4.016;2022-10-26T16:57:03;20.70;99.90
52273;DHT22;38227;50.942;4.016;2022-10-26T16:59:41;20.60;99.90
52273;DHT22;38227;50.942;4.016;2022-10-26T17:02:12;20.60;99.90
52273;DHT22;38227;50.942;4.016;2022-10-26T17:04:51;20.50;99.90
52273;DHT22;38227;50.942;4.016;2022-10-26T17:07:29;20.50;99.90
52273;DHT22;38227;50.942;4.016;2022-10-26T17:10:02;20.40;99.90
52273;DHT22;38227;50.942;4.016;2022-10-26T17:12:31;20.40;99.90
52273;DHT22;38227;50.942;4.016;2022-10-26T17:15:04;20.30;99.90
52273;DHT22;38227;50.942;4.016;2022-10-26T17:17:36;20.30;99.90
52273;DHT22;38227;50.942;4.016;2022-10-26T17:20:05;20.30;99.90
52273;DHT22;38227;50.942;4.016;2022-10-26T17:22:35;20.30;99.90
52273;DHT22;38227;50.942;4.016;2022-10-26T17:25:07;20.30;99.90
52273;DHT22;38227;50.942;4.016;2022-10-26T17:27:38;20.30;99.90
52273;DHT22;38227;50.942;4.016;2022-10-26T17:30:10;20.30;99.90
52273;DHT22;38227;50.942;4.016;2022-10-26T17:32:48;20.30;99.90
52273;DHT22;38227;50.942;4.016;2022-10-26T17:35:23;20.30;99.90
52273;DHT22;38227;50.942;4.016;2022-10-26T17:37:59;20.20;99.90
52273;DHT22;38227;50.942;4.016;2022-10-26T17:40:40;20.30;99.90
52273;DHT22;38227;50.942;4.016;2022-10-26T17:43:11;20.40;99.90
52273;DHT22;38227;50.942;4.016;2022-10-26T17:45:46;20.30;99.90
52273;DHT22;38227;50.942;4.016;2022-10-26T17:48:17;20.30;99.90
52273;DHT22;38227;50.942;4.016;2022-10-26T17:50:50;20.20;99.90
52273;DHT22;38227;50.942;4.016;2022-10-26T17:53:21;20.10;99.90
52273;DHT22;38227;50.942;4.016;2022-10-26T17:56:22;20.20;99.90
52273;DHT22;38227;50.942;4.016;2022-10-26T17:59:00;20.00;99.90
52273;DHT22;38227;50.942;4.016;2022-10-26T18:01:43;20.10;99.90
52273;DHT22;38227;50.942;4.016;2022-10-26T18:04:14;20.00;99.90
52273;DHT22;38227;50.942;4.016;2022-10-26T18:06:49;19.90;99.90
52273;DHT22;38227;50.942;4.016;2022-10-26T18:09:20;19.80;99.90
52273;DHT22;38227;50.942;4.016;2022-10-26T18:11:55;19.80;99.90
52273;DHT22;38227;50.942;4.016;2022-10-26T18:14:25;19.80;99.90
52273;DHT22;38227;50.942;4.016;2022-10-26T18:17:13;19.70;99.90
52273;DHT22;38227;50.942;4.016;2022-10-26T18:19:43;19.70;99.90
52273;DHT22;38227;50.942;4.016;2022-10-26T18:22:21;19.70;99.90
52273;DHT22;38227;50.942;4.016;2022-10-26T18:25:08;19.80;99.90
52273;DHT22;38227;50.942;4.016;2022-10-26T18:27:45;19.80;99.90
52273;DHT22;38227;50.942;4.016;2022-10-26T18:30:20;19.80;99.90
52273;DHT22;38227;50.942;4.016;2022-10-26T18:32:51;19.80;99.90
52273;DHT22;38227;50.942;4.016;2022-10-26T18:35:26;19.70;99.90
52273;DHT22;38227;50.942;4.016;2022-10-26T18:38:01;19.70;99.90
52273;DHT22;38227;50.942;4.016;2022-10-26T18:40:42;19.70;99.90
52273;DHT22;38227;50.942;4.016;2022-10-26T18:43:13;19.60;99.90
52273;DHT22;38227;50.942;4.016;2022-10-26T18:46:03;19.60;99.90
52273;DHT22;38227;50.942;4.016;2022-10-26T18:48:34;19.60;99.90
52273;DHT22;38227;50.942;4.016;2022-10-26T18:51:17;19.60;99.90
52273;DHT22;38227;50.942;4.016;2022-10-26T18:53:49;19.50;99.90
52273;DHT22;38227;50.942;4.016;2022-10-26T18:56:20;19.60;99.90
52273;DHT22;38227;50.942;4.016;2022-10-26T18:58:52;19.60;99.90
52273;DHT22;38227;50.942;4.016;2022-10-26T19:01:30;19.70;99.90
52273;DHT22;38227;50.942;4.016;2022-10-26T19:04:03;19.80;99.90
52273;DHT22;38227;50.942;4.016;2022-10-26T19:06:34;19.60;99.90
52273;DHT22;38227;50.942;4.016;2022-10-26T19:09:06;19.60;99.90
52273;DHT22;38227;50.942;4.016;2022-10-26T19:11:35;19.50;99.90
52273;DHT22;38227;50.942;4.016;2022-10-26T19:14:10;19.60;99.90
52273;DHT22;38227;50.942;4.016;2022-10-26T19:16:39;19.60;99.90
52273;DHT22;38227;50.942;4.016;2022-10-26T19:19:09;19.60;99.90
52273;DHT22;38227;50.942;4.016;2022-10-26T19:21:41;19.60;99.90
52273;DHT22;38227;50.942;4.016;2022-10-26T19:24:18;19.50;99.90
52273;DHT22;38227;50.942;4.016;2022-10-26T19:26:48;19.50;99.90
52273;DHT22;38227;50.942;4.016;2022-10-26T19:29:18;19.50;99.90
52273;DHT22;38227;50.942;4.016;2022-10-26T19:31:49;19.50;99.90
52273;DHT22;38227;50.942;4.016;2022-10-26T19:34:22;19.50;99.90
52273;DHT22;38227;50.942;4.016;2022-10-26T19:36:53;19.60;99.90
52273;DHT22;38227;50.942;4.016;2022-10-26T19:39:25;19.50;99.90
52273;DHT22;38227;50.942;4.016;2022-10-26T19:41:56;19.40;99.90
52273;DHT22;38227;50.942;4.016;2022-10-26T19:44:35;19.50;99.90
52273;DHT22;38227;50.942;4.016;2022-10-26T19:47:03;19.50;99.90
52273;DHT22;38227;50.942;4.016;2022-10-26T19:49:36;19.50;99.90
52273;DHT22;38227;50.942;4.016;2022-10-26T19:52:04;19.50;99.90
52273;DHT22;38227;50.942;4.016;2022-10-26T19:54:33;19.40;99.90
52273;DHT22;38227;50.942;4.016;2022-10-26T19:57:05;19.40;99.90
52273;DHT22;38227;50.942;4.016;2022-10-26T19:59:33;19.50;99.90
52273;DHT22;38227;50.942;4.016;2022-10-26T20:02:02;19.60;99.90
52273;DHT22;38227;50.942;4.016;2022-10-26T20:04:34;19.50;99.90
52273;DHT22;38227;50.942;4.016;2022-10-26T20:07:02;19.50;99.90
52273;DHT22;38227;50.942;4.016;2022-10-26T20:09:40;19.40;99.90
52273;DHT22;38227;50.942;4.016;2022-10-26T20:12:19;19.40;99.90
52273;DHT22;38227;50.942;4.016;2022-10-26T20:14:46;19.50;99.90
52273;DHT22;38227;50.942;4.016;2022-10-26T20:17:25;19.40;99.90
52273;DHT22;38227;50.942;4.016;2022-10-26T20:19:53;19.40;99.90
52273;DHT22;38227;50.942;4.016;2022-10-26T20:22:32;19.40;99.90
52273;DHT22;38227;50.942;4.016;2022-10-26T20:25:01;19.50;99.90
52273;DHT22;38227;50.942;4.016;2022-10-26T20:27:29;19.40;99.90
52273;DHT22;38227;50.942;4.016;2022-10-26T20:30:02;19.30;99.90
52273;DHT22;38227;50.942;4.016;2022-10-26T20:32:30;19.30;99.90
52273;DHT22;38227;50.942;4.016;2022-10-26T20:35:02;19.30;99.90
52273;DHT22;38227;50.942;4.016;2022-10-26T20:37:31;19.30;99.90
52273;DHT22;38227;50.942;4.016;2022-10-26T20:40:05;19.20;99.90
52273;DHT22;38227;50.942;4.016;2022-10-26T20:42:35;19.20;99.90
52273;DHT22;38227;50.942;4.016;2022-10-26T20:45:15;19.20;99.90
52273;DHT22;38227;50.942;4.016;2022-10-26T20:47:47;19.10;99.90
52273;DHT22;38227;50.942;4.016;2022-10-26T20:50:19;19.10;99.90
52273;DHT22;38227;50.942;4.016;2022-10-26T20:56:21;19.10;99.90
52273;DHT22;38227;50.942;4.016;2022-10-26T20:58:56;19.00;99.90
52273;DHT22;38227;50.942;4.016;2022-10-26T21:01:30;19.00;99.90
52273;DHT22;38227;50.942;4.016;2022-10-26T21:04:02;18.90;99.90
52273;DHT22;38227;50.942;4.016;2022-10-26T21:06:32;18.90;99.90
52273;DHT22;38227;50.942;4.016;2022-10-26T21:09:05;18.70;99.90
52273;DHT22;38227;50.942;4.016;2022-10-26T21:11:39;18.70;99.90
52273;DHT22;38227;50.942;4.016;2022-10-26T21:14:10;18.70;99.90
52273;DHT22;38227;50.942;4.016;2022-10-26T21:16:39;18.60;99.90
52273;DHT22;38227;50.942;4.016;2022-10-26T21:19:07;18.60;99.90
52273;DHT22;38227;50.942;4.016;2022-10-26T21:21:36;18.50;99.90
52273;DHT22;38227;50.942;4.016;2022-10-26T21:24:04;18.50;99.90
52273;DHT22;38227;50.942;4.016;2022-10-26T21:26:38;18.60;99.90
52273;DHT22;38227;50.942;4.016;2022-10-26T21:29:05;18.60;99.90
52273;DHT22;38227;50.942;4.016;2022-10-26T21:31:38;18.50;99.90
52273;DHT22;38227;50.942;4.016;2022-10-26T21:34:06;18.40;99.90
52273;DHT22;38227;50.942;4.016;2022-10-26T21:36:35;18.40;99.90
52273;DHT22;38227;50.942;4.016;2022-10-26T21:39:10;18.40;99.90
52273;DHT22;38227;50.942;4.016;2022-10-26T21:41:38;18.30;99.90
52273;DHT22;38227;50.942;4.016;2022-10-26T21:44:10;18.20;99.90
52273;DHT22;38227;50.942;4.016;2022-10-26T21:46:38;18.10;99.90
52273;DHT22;38227;50.942;4.016;2022-10-26T21:49:16;18.20;99.90
52273;DHT22;38227;50.942;4.016;2022-10-26T21:51:44;18.20;99.90
52273;DHT22;38227;50.942;4.016;2022-10-26T21:54:16;18.20;99.90
52273;DHT22;38227;50.942;4.016;2022-10-26T21:56:46;18.10;99.90
52273;DHT22;38227;50.942;4.016;2022-10-26T21:59:18;18.10;99.90
52273;DHT22;38227;50.942;4.016;2022-10-26T22:01:46;18.10;99.90
52273;DHT22;38227;50.942;4.016;2022-10-26T22:04:19;18.00;99.90
52273;DHT22;38227;50.942;4.016;2022-10-26T22:06:47;18.00;99.90
52273;DHT22;38227;50.942;4.016;2022-10-26T22:09:18;18.10;99.90
52273;DHT22;38227;50.942;4.016;2022-10-26T22:11:59;18.10;99.90
52273;DHT22;38227;50.942;4.016;2022-10-26T22:14:38;17.90;99.90
52273;DHT22;38227;50.942;4.016;2022-10-26T22:17:06;18.10;99.90
52273;DHT22;38227;50.942;4.016;2022-10-26T22:19:38;18.00;99.90
52273;DHT22;38227;50.942;4.016;2022-10-26T22:22:08;17.90;99.90
52273;DHT22;38227;50.942;4.016;2022-10-26T22:24:40;17.90;99.90
52273;DHT22;38227;50.942;4.016;2022-10-26T22:27:08;17.90;99.90
52273;DHT22;38227;50.942;4.016;2022-10-26T22:29:40;17.90;99.90
52273;DHT22;38227;50.942;4.016;2022-10-26T22:32:09;17.80;99.90
52273;DHT22;38227;50.942;4.016;2022-10-26T22:34:41;17.90;99.90
52273;DHT22;38227;50.942;4.016;2022-10-26T22:37:12;17.90;99.90
52273;DHT22;38227;50.942;4.016;2022-10-26T22:39:43;17.80;99.90
52273;DHT22;38227;50.942;4.016;2022-10-26T22:42:12;17.80;99.90
52273;DHT22;38227;50.942;4.016;2022-10-26T22:44:44;17.70;99.90
52273;DHT22;38227;50.942;4.016;2022-10-26T22:47:12;17.60;99.90
52273;DHT22;38227;50.942;4.016;2022-10-26T22:49:44;17.60;99.90
52273;DHT22;38227;50.942;4.016;2022-10-26T22:52:16;17.60;99.90
52273;DHT22;38227;50.942;4.016;2022-10-26T22:54:51;17.60;99.90
52273;DHT22;38227;50.942;4.016;2022-10-26T22:57:19;17.70;99.90
52273;DHT22;38227;50.942;4.016;2022-10-26T22:59:51;17.90;99.90
52273;DHT22;38227;50.942;4.016;2022-10-26T23:02:20;17.90;99.90
52273;DHT22;38227;50.942;4.016;2022-10-26T23:04:58;17.80;99.90
52273;DHT22;38227;50.942;4.016;2022-10-26T23:07:28;17.70;99.90
52273;DHT22;38227;50.942;4.016;2022-10-26T23:09:56;17.70;99.90
52273;DHT22;38227;50.942;4.016;2022-10-26T23:12:28;17.80;99.90
52273;DHT22;38227;50.942;4.016;2022-10-26T23:15:04;17.70;99.90
52273;DHT22;38227;50.942;4.016;2022-10-26T23:17:34;17.70;99.90
52273;DHT22;38227;50.942;4.016;2022-10-26T23:20:08;17.80;99.90
52273;DHT22;38227;50.942;4.016;2022-10-26T23:22:40;17.80;99.90
52273;DHT22;38227;50.942;4.016;2022-10-26T23:25:11;17.70;99.90
52273;DHT22;38227;50.942;4.016;2022-10-26T23:27:45;17.60;99.90
52273;DHT22;38227;50.942;4.016;2022-10-26T23:30:17;17.50;99.90
52273;DHT22;38227;50.942;4.016;2022-10-26T23:32:58;17.50;99.90
52273;DHT22;38227;50.942;4.016;2022-10-26T23:35:36;17.50;99.90
52273;DHT22;38227;50.942;4.016;2022-10-26T23:38:23;17.40;99.90
52273;DHT22;38227;50.942;4.016;2022-10-26T23:40:55;17.30;99.90
52273;DHT22;38227;50.942;4.016;2022-10-26T23:43:27;17.30;99.90
52273;DHT22;38227;50.942;4.016;2022-10-26T23:45:58;17.30;99.90
52273;DHT22;38227;50.942;4.016;2022-10-26T23:48:30;17.20;99.90
52273;DHT22;38227;50.942;4.016;2022-10-26T23:51:07;17.20;99.90
52273;DHT22;38227;50.942;4.016;2022-10-26T23:53:38;17.10;99.90
52273;DHT22;38227;50.942;4.016;2022-10-26T23:56:13;17.00;99.90
52273;DHT22;38227;50.942;4.016;2022-10-26T23:58:47;17.00;99.90
